Time;durP1;ratioP1;P1;durP2;ratioP2;P2;SDS_P1;SDS_P2;PMS_P1;PMS_P2;Temp;Humidity;BMP_temperature;BMP_pressure;BME280_temperature;BME280_humidity;BME280_pressure;Samples;Min_cycle;Max_cycle;Signal;HPM_P1;HPM_P2
2022/10/06 00:00:38;;;;;;;;;;;;;;;;;;5029756;28;19996;-34
2022/10/06 00:03:03;;;;;;;;;;;;;;;;;;5032555;28;20104;-34
2022/10/06 00:05:28;;;;;;;;;;;;;;;;;;5030940;28;19944;-35
2022/10/06 00:07:54;;;;;;;;;;;;;;;;;;5039380;28;20004;-34
2022/10/06 00:10:19;;;;;;;;;;;;;;;;;;5029806;28;19917;-35
2022/10/06 00:12:44;;;;;;;;;;;;;;;;;;5031619;28;19921;-35
2022/10/06 00:15:09;;;;;;;;;;;;;;;;;;5029038;28;20289;-34
2022/10/06 00:17:34;;;;;;;;;;;;;;;;;;5027796;28;19920;-34
2022/10/06 00:20:00;;;;;;;;;;;;;;;;;;5032384;28;19951;-34
2022/10/06 00:22:25;;;;;;;;;;;;;;;;;;5030609;28;19924;-34
2022/10/06 00:24:50;;;;;;;;;;;;;;;;;;5027367;28;19944;-34
2022/10/06 00:27:15;;;;;;;;;;;;;;;;;;5029352;28;20446;-35
2022/10/06 00:29:41;;;;;;;;;;;;;;;;;;5028934;28;19917;-35
2022/10/06 00:32:08;;;;;;;;;;;;;;;;;;5032064;28;20622;-35
2022/10/06 00:34:35;;;;;;;;;;;;;;;;;;5035079;28;19917;-34
2022/10/06 00:37:00;;;;;;;;;;;;;;;;;;5032865;28;19925;-35
2022/10/06 00:39:25;;;;;;;;;;;;;;;;;;5031113;28;19920;-34
2022/10/06 00:41:50;;;;;;;;;;;;;;;;;;5033831;28;19912;-34
2022/10/06 00:44:16;;;;;;;;;;;;;;;;;;5033211;28;20286;-34
2022/10/06 00:46:41;;;;;;;;;;;;;;;;;;5030402;28;20007;-35
2022/10/06 00:49:06;;;;;;;;;;;;;;;;;;5035758;28;19916;-35
2022/10/06 00:51:32;;;;;;;;;;;;;;;;;;5029159;28;19913;-34
2022/10/06 00:53:57;;;;;;;;;;;;;;;;;;5029803;28;19924;-35
2022/10/06 00:56:22;;;;;;;;;;;;;;;;;;5034024;28;19966;-35
2022/10/06 00:58:47;;;;;;;;;;;;;;;;;;5032321;28;19924;-34
2022/10/06 01:01:12;;;;;;;;;;;;;;;;;;5031728;28;20337;-35
2022/10/06 01:03:38;;;;;;;;;;;;;;;;;;5032191;28;19960;-34
2022/10/06 01:06:03;;;;;;;;;;;;;;;;;;5031813;28;19917;-34
2022/10/06 01:08:28;;;;;;;;;;;;;;;;;;5033607;28;19918;-34
2022/10/06 01:10:53;;;;;;;;;;;;;;;;;;5030115;28;20353;-34
2022/10/06 01:13:18;;;;;;;;;;;;;;;;;;5033413;28;19917;-35
2022/10/06 01:15:43;;;;;;;;;;;;;;;;;;5030496;28;20460;-34
2022/10/06 01:18:09;;;;;;;;;;;;;;;;;;5029741;28;21381;-34
2022/10/06 01:20:35;;;;;;;;;;;;;;;;;;5029821;28;19983;-34
2022/10/06 01:23:00;;;;;;;;;;;;;;;;;;5030142;28;19948;-35
2022/10/06 01:25:26;;;;;;;;;;;;;;;;;;5028517;28;20390;-34
2022/10/06 01:27:52;;;;;;;;;;;;;;;;;;5029061;28;19917;-34
2022/10/06 01:30:17;;;;;;;;;;;;;;;;;;5031795;28;19982;-34
2022/10/06 01:32:43;;;;;;;;;;;;;;;;;;5029038;28;20540;-35
2022/10/06 01:35:08;;;;;;;;;;;;;;;;;;5030335;28;19925;-35
2022/10/06 01:37:33;;;;;;;;;;;;;;;;;;5030551;28;19917;-34
2022/10/06 01:39:58;;;;;;;;;;;;;;;;;;5027818;28;19917;-34
2022/10/06 01:42:23;;;;;;;;;;;;;;;;;;5030379;28;19917;-35
2022/10/06 01:44:49;;;;;;;;;;;;;;;;;;5031451;28;20393;-35
2022/10/06 01:47:14;;;;;;;;;;;;;;;;;;5035380;28;19996;-35
2022/10/06 01:49:39;;;;;;;;;;;;;;;;;;5028654;28;19913;-35
2022/10/06 01:52:04;;;;;;;;;;;;;;;;;;5029876;28;20007;-35
2022/10/06 01:54:29;;;;;;;;;;;;;;;;;;5032519;28;19913;-34
2022/10/06 01:56:54;;;;;;;;;;;;;;;;;;5029797;28;19940;-34
2022/10/06 01:59:20;;;;;;;;;;;;;;;;;;5030014;28;20268;-34
2022/10/06 02:01:45;;;;;;;;;;;;;;;;;;5030177;28;19913;-35
2022/10/06 02:04:10;;;;;;;;;;;;;;;;;;5028659;28;19932;-35
2022/10/06 02:06:35;;;;;;;;;;;;;;;;;;5029870;28;19917;-34
2022/10/06 02:09:01;;;;;;;;;;;;;;;;;;5027473;28;19952;-34
2022/10/06 02:11:26;;;;;;;;;;;;;;;;;;5029053;28;20099;-34
2022/10/06 02:13:51;;;;;;;;;;;;;;;;;;5030077;28;19967;-34
2022/10/06 02:16:17;;;;;;;;;;;;;;;;;;5028833;28;19921;-34
2022/10/06 02:18:42;;;;;;;;;;;;;;;;;;5024795;28;19920;-34
2022/10/06 02:21:07;;;;;;;;;;;;;;;;;;5032153;28;20348;-34
2022/10/06 02:23:32;;;;;;;;;;;;;;;;;;5029971;28;20130;-34
2022/10/06 02:25:57;;;;;;;;;;;;;;;;;;5033180;28;20353;-34
2022/10/06 02:28:22;;;;;;;;;;;;;;;;;;5030550;28;19924;-34
2022/10/06 02:30:48;;;;;;;;;;;;;;;;;;5032000;28;20004;-34
2022/10/06 02:33:13;;;;;;;;;;;;;;;;;;5032127;28;20069;-34
2022/10/06 02:35:38;;;;;;;;;;;;;;;;;;5035310;28;19995;-34
2022/10/06 02:38:03;;;;;;;;;;;;;;;;;;5036106;28;19917;-34
2022/10/06 02:40:28;;;;;;;;;;;;;;;;;;5032625;28;20051;-34
2022/10/06 02:42:54;;;;;;;;;;;;;;;;;;5033295;28;19986;-34
2022/10/06 02:45:19;;;;;;;;;;;;;;;;;;5034055;28;19952;-34
2022/10/06 02:47:45;;;;;;;;;;;;;;;;;;5034831;28;20385;-34
2022/10/06 02:50:11;;;;;;;;;;;;;;;;;;5035227;28;19932;-33
2022/10/06 02:52:36;;;;;;;;;;;;;;;;;;5033968;28;19917;-34
2022/10/06 02:55:02;;;;;;;;;;;;;;;;;;5039736;28;19928;-34
2022/10/06 02:57:28;;;;;;;;;;;;;;;;;;5033202;28;20305;-34
2022/10/06 02:59:53;;;;;;;;;;;;;;;;;;5033760;28;19920;-34
2022/10/06 03:02:18;;;;;;;;;;;;;;;;;;5034800;28;19917;-34
2022/10/06 03:04:44;;;;;;;;;;;;;;;;;;5038528;28;19921;-33
2022/10/06 03:07:09;;;;;;;;;;;;;;;;;;5032635;28;21281;-34
2022/10/06 03:09:34;;;;;;;;;;;;;;;;;;5031524;28;20358;-34
2022/10/06 03:11:59;;;;;;;;;;;;;;;;;;5034912;28;19909;-34
2022/10/06 03:14:25;;;;;;;;;;;;;;;;;;5031977;28;19924;-34
2022/10/06 03:16:55;;;;;;;;;;;;;;;;;;5032253;28;20007;-34
2022/10/06 03:19:20;;;;;;;;;;;;;;;;;;5034592;28;19959;-34
2022/10/06 03:21:46;;;;;;;;;;;;;;;;;;5034954;28;19956;-34
2022/10/06 03:24:11;;;;;;;;;;;;;;;;;;5036962;28;19917;-34
2022/10/06 03:26:36;;;;;;;;;;;;;;;;;;5033503;28;20363;-34
2022/10/06 03:29:01;;;;;;;;;;;;;;;;;;5032910;28;19917;-33
2022/10/06 03:31:26;;;;;;;;;;;;;;;;;;5033920;28;19999;-34
2022/10/06 03:33:53;;;;;;;;;;;;;;;;;;5030945;28;19970;-34
2022/10/06 03:36:18;;;;;;;;;;;;;;;;;;5034832;28;19921;-34
2022/10/06 03:38:43;;;;;;;;;;;;;;;;;;5037353;28;20291;-34
2022/10/06 03:41:08;;;;;;;;;;;;;;;;;;5032013;28;20035;-33
2022/10/06 03:43:33;;;;;;;;;;;;;;;;;;5032741;28;19917;-33
2022/10/06 03:46:02;;;;;;;;;;;;;;;;;;5038340;28;19920;-34
2022/10/06 03:48:27;;;;;;;;;;;;;;;;;;5031992;28;20390;-34
2022/10/06 03:50:52;;;;;;;;;;;;;;;;;;5033600;28;19963;-34
2022/10/06 03:53:17;;;;;;;;;;;;;;;;;;5035046;28;20275;-33
2022/10/06 03:55:42;;;;;;;;;;;;;;;;;;5034125;28;19920;-33
2022/10/06 03:58:08;;;;;;;;;;;;;;;;;;5032728;28;19916;-34
2022/10/06 04:00:34;;;;;;;;;;;;;;;;;;5032208;28;19995;-33
2022/10/06 04:02:59;;;;;;;;;;;;;;;;;;5034947;28;19913;-34
2022/10/06 04:05:24;;;;;;;;;;;;;;;;;;5028755;28;19924;-33
2022/10/06 04:07:49;;;;;;;;;;;;;;;;;;5034123;28;19989;-34
2022/10/06 04:10:14;;;;;;;;;;;;;;;;;;5032328;28;19955;-33
2022/10/06 04:12:39;;;;;;;;;;;;;;;;;;5033186;28;19925;-33
2022/10/06 04:15:05;;;;;;;;;;;;;;;;;;5035793;28;19917;-34
2022/10/06 04:17:30;;;;;;;;;;;;;;;;;;5032243;28;19947;-34
2022/10/06 04:19:55;;;;;;;;;;;;;;;;;;5030045;28;19921;-34
2022/10/06 04:22:20;;;;;;;;;;;;;;;;;;5033788;28;20339;-34
2022/10/06 04:24:45;;;;;;;;;;;;;;;;;;5028110;28;19921;-34
2022/10/06 04:27:26;;;;;;;;;;;;;;;;;;5036588;28;20302;-34
2022/10/06 04:29:51;;;;;;;;;;;;;;;;;;5045896;28;19917;-34
2022/10/06 04:32:16;;;;;;;;;;;;;;;;;;5033265;28;19917;-34
2022/10/06 04:34:41;;;;;;;;;;;;;;;;;;5036818;28;19917;-34
2022/10/06 04:37:07;;;;;;;;;;;;;;;;;;5033881;28;20019;-34
2022/10/06 04:39:32;;;;;;;;;;;;;;;;;;5037135;28;19913;-34
2022/10/06 04:41:57;;;;;;;;;;;;;;;;;;5034234;28;19920;-34
2022/10/06 04:44:22;;;;;;;;;;;;;;;;;;5036232;28;19963;-34
2022/10/06 04:46:47;;;;;;;;;;;;;;;;;;5032296;28;19920;-34
2022/10/06 04:49:13;;;;;;;;;;;;;;;;;;5033771;28;19966;-34
2022/10/06 04:51:38;;;;;;;;;;;;;;;;;;5034152;28;20397;-34
2022/10/06 04:54:03;;;;;;;;;;;;;;;;;;5036683;28;19917;-34
2022/10/06 04:56:28;;;;;;;;;;;;;;;;;;5033025;28;19956;-34
2022/10/06 04:58:53;;;;;;;;;;;;;;;;;;5035401;28;19913;-34
2022/10/06 05:01:19;;;;;;;;;;;;;;;;;;5030118;28;19913;-34
2022/10/06 05:03:44;;;;;;;;;;;;;;;;;;5030680;28;19921;-34
2022/10/06 05:06:09;;;;;;;;;;;;;;;;;;5036263;28;19923;-34
2022/10/06 05:08:35;;;;;;;;;;;;;;;;;;5031502;28;20064;-34
2022/10/06 05:11:00;;;;;;;;;;;;;;;;;;5035781;28;19955;-34
2022/10/06 05:13:25;;;;;;;;;;;;;;;;;;5035687;28;20028;-34
2022/10/06 05:15:50;;;;;;;;;;;;;;;;;;5036299;28;19960;-34
2022/10/06 05:18:15;;;;;;;;;;;;;;;;;;5037893;28;20574;-34
2022/10/06 05:20:41;;;;;;;;;;;;;;;;;;5027740;28;20642;-34
2022/10/06 05:23:06;;;;;;;;;;;;;;;;;;5032914;28;19987;-34
2022/10/06 05:25:33;;;;;;;;;;;;;;;;;;5030637;28;20131;-34
2022/10/06 05:27:59;;;;;;;;;;;;;;;;;;5031615;28;19913;-34
2022/10/06 05:30:24;;;;;;;;;;;;;;;;;;5030135;28;19923;-34
2022/10/06 05:32:50;;;;;;;;;;;;;;;;;;5031042;28;20444;-34
2022/10/06 05:35:16;;;;;;;;;;;;;;;;;;5030646;28;19913;-55
2022/10/06 05:37:50;;;;;;;;;;;;;;;;;;5001022;28;19926;-35
2022/10/06 05:40:15;;;;;;;;;;;;;;;;;;5005179;28;20263;-35
2022/10/06 05:42:40;;;;;;;;;;;;;;;;;;5002470;28;20378;-35
2022/10/06 05:45:05;;;;;;;;;;;;;;;;;;5004128;28;19917;-35
2022/10/06 05:47:31;;;;;;;;;;;;;;;;;;5004983;28;19918;-35
2022/10/06 05:49:56;;;;;;;;;;;;;;;;;;5002284;28;20887;-35
2022/10/06 05:52:21;;;;;;;;;;;;;;;;;;5005788;28;19917;-35
2022/10/06 05:54:46;;;;;;;;;;;;;;;;;;5003905;28;19921;-35
2022/10/06 05:57:12;;;;;;;;;;;;;;;;;;4999312;28;20350;-35
2022/10/06 05:59:38;;;;;;;;;;;;;;;;;;4999984;28;20355;-35
2022/10/06 06:02:03;;;;;;;;;;;;;;;;;;5004512;28;19957;-35
2022/10/06 06:04:28;;;;;;;;;;;;;;;;;;5003471;28;19914;-35
2022/10/06 06:06:53;;;;;;;;;;;;;;;;;;5003872;28;20306;-35
2022/10/06 06:09:18;;;;;;;;;;;;;;;;;;5003533;28;20056;-35
2022/10/06 06:11:43;;;;;;;;;;;;;;;;;;5001663;28;19976;-35
2022/10/06 06:14:09;;;;;;;;;;;;;;;;;;5002915;28;20371;-35
2022/10/06 06:16:34;;;;;;;;;;;;;;;;;;5000743;28;20007;-35
2022/10/06 06:19:00;;;;;;;;;;;;;;;;;;5003102;28;19917;-35
2022/10/06 06:21:25;;;;;;;;;;;;;;;;;;5004572;28;19914;-35
2022/10/06 06:23:50;;;;;;;;;;;;;;;;;;5003616;28;20266;-35
2022/10/06 06:26:16;;;;;;;;;;;;;;;;;;4998997;28;19917;-35
2022/10/06 06:28:42;;;;;;;;;;;;;;;;;;5000686;28;19993;-35
2022/10/06 06:31:07;;;;;;;;;;;;;;;;;;5002139;28;19913;-35
2022/10/06 06:33:32;;;;;;;;;;;;;;;;;;5000446;28;19918;-36
2022/10/06 06:35:59;;;;;;;;;;;;;;;;;;5002725;28;20514;-35
2022/10/06 06:38:25;;;;;;;;;;;;;;;;;;5003613;28;19925;-35
2022/10/06 06:40:50;;;;;;;;;;;;;;;;;;5002037;28;19921;-35
2022/10/06 06:43:15;;;;;;;;;;;;;;;;;;5001818;28;20008;-34
2022/10/06 06:45:40;;;;;;;;;;;;;;;;;;5001872;28;19929;-35
2022/10/06 06:48:05;;;;;;;;;;;;;;;;;;5002014;28;20004;-35
2022/10/06 06:50:31;;;;;;;;;;;;;;;;;;5003633;28;19920;-35
2022/10/06 06:52:56;;;;;;;;;;;;;;;;;;5003093;28;19928;-34
2022/10/06 06:55:21;;;;;;;;;;;;;;;;;;5000967;28;21148;-36
2022/10/06 06:57:48;;;;;;;;;;;;;;;;;;4999400;28;20359;-35
2022/10/06 07:00:15;;;;;;;;;;;;;;;;;;5002790;28;19918;-35
2022/10/06 07:02:40;;;;;;;;;;;;;;;;;;5002898;28;20004;-35
2022/10/06 07:05:05;;;;;;;;;;;;;;;;;;5002780;28;20004;-35
2022/10/06 07:07:30;;;;;;;;;;;;;;;;;;5003411;28;20354;-35
2022/10/06 07:09:56;;;;;;;;;;;;;;;;;;5000929;28;19918;-35
2022/10/06 07:12:21;;;;;;;;;;;;;;;;;;5004057;28;20399;-35
2022/10/06 07:25:42;;;;;;;;;;;;;;;;;;5002987;28;20921;-36
2022/10/06 07:28:10;;;;;;;;;;;;;;;;;;5004151;28;20398;-35
2022/10/06 07:30:36;;;;;;;;;;;;;;;;;;4997665;28;20062;-35
2022/10/06 07:33:03;;;;;;;;;;;;;;;;;;5002243;28;20506;-36
2022/10/06 07:35:29;;;;;;;;;;;;;;;;;;5003486;28;20000;-35
2022/10/06 07:37:54;;;;;;;;;;;;;;;;;;5002751;28;20074;-36
2022/10/06 07:40:19;;;;;;;;;;;;;;;;;;4999508;28;20350;-35
2022/10/06 07:42:47;;;;;;;;;;;;;;;;;;5004440;28;19964;-35
2022/10/06 07:47:57;;;;;;;;;;;;;;;;;;5003316;28;19944;-35
2022/10/06 07:50:24;;;;;;;;;;;;;;;;;;5003282;28;20362;-34
2022/10/06 07:52:49;;;;;;;;;;;;;;;;;;5005580;28;19964;-35
2022/10/06 07:55:16;;;;;;;;;;;;;;;;;;5006209;28;19918;-36
2022/10/06 07:57:41;;;;;;;;;;;;;;;;;;5004376;28;19981;-35
2022/10/06 08:00:06;;;;;;;;;;;;;;;;;;5005063;28;20322;-36
2022/10/06 08:02:32;;;;;;;;;;;;;;;;;;5005315;28;20020;-34
2022/10/06 08:04:57;;;;;;;;;;;;;;;;;;5006099;28;19913;-35
2022/10/06 08:07:22;;;;;;;;;;;;;;;;;;5002452;28;19918;-35
2022/10/06 08:09:47;;;;;;;;;;;;;;;;;;5000478;28;19960;-35
2022/10/06 08:12:55;;;;;;;;;;;;;;;;;;4999707;28;20295;-35
2022/10/06 08:15:02;;;;;;;;;;;;;;;;;;4994508;28;19925;-34
2022/10/06 08:17:27;;;;;;;;;;;;;;;;;;5001124;28;20012;-35
2022/10/06 08:19:53;;;;;;;;;;;;;;;;;;5002397;28;20486;-35
2022/10/06 08:22:18;;;;;;;;;;;;;;;;;;5002612;28;19917;-35
2022/10/06 08:24:43;;;;;;;;;;;;;;;;;;5000219;28;20420;-35
2022/10/06 08:27:08;;;;;;;;;;;;;;;;;;5001080;28;19918;-35
2022/10/06 08:29:33;;;;;;;;;;;;;;;;;;5002924;28;20418;-35
2022/10/06 08:31:59;;;;;;;;;;;;;;;;;;5003480;28;19949;-35
2022/10/06 08:34:24;;;;;;;;;;;;;;;;;;5001281;28;21054;-36
2022/10/06 08:36:49;;;;;;;;;;;;;;;;;;5000873;28;19921;-36
2022/10/06 08:39:15;;;;;;;;;;;;;;;;;;5003165;28;20127;-36
2022/10/06 08:41:42;;;;;;;;;;;;;;;;;;5003278;28;19963;-36
2022/10/06 08:44:07;;;;;;;;;;;;;;;;;;5002202;28;19924;-36
2022/10/06 08:46:32;;;;;;;;;;;;;;;;;;5001614;28;19917;-35
2022/10/06 08:48:57;;;;;;;;;;;;;;;;;;5001875;28;20334;-35
2022/10/06 08:51:22;;;;;;;;;;;;;;;;;;4999325;28;21934;-35
2022/10/06 08:53:48;;;;;;;;;;;;;;;;;;4997804;28;20466;-36
2022/10/06 08:56:16;;;;;;;;;;;;;;;;;;4997546;28;19927;-36
2022/10/06 08:58:42;;;;;;;;;;;;;;;;;;5000652;28;19918;-35
2022/10/06 09:01:08;;;;;;;;;;;;;;;;;;5000657;28;19979;-35
2022/10/06 09:03:34;;;;;;;;;;;;;;;;;;5000700;28;19918;-35
2022/10/06 09:05:59;;;;;;;;;;;;;;;;;;5002433;28;19917;-36
2022/10/06 09:08:24;;;;;;;;;;;;;;;;;;4999454;28;19989;-36
2022/10/06 09:10:49;;;;;;;;;;;;;;;;;;4998376;28;19917;-35
2022/10/06 09:13:16;;;;;;;;;;;;;;;;;;4994548;28;20164;-35
2022/10/06 09:15:41;;;;;;;;;;;;;;;;;;4999104;28;20520;-36
2022/10/06 09:18:07;;;;;;;;;;;;;;;;;;4995268;28;20310;-36
2022/10/06 09:20:32;;;;;;;;;;;;;;;;;;4999388;28;19921;-35
2022/10/06 09:22:57;;;;;;;;;;;;;;;;;;4999782;28;19927;-34
2022/10/06 09:25:25;;;;;;;;;;;;;;;;;;4997906;28;20578;-35
2022/10/06 09:27:50;;;;;;;;;;;;;;;;;;4998608;28;20026;-35
2022/10/06 09:30:15;;;;;;;;;;;;;;;;;;4995068;28;20782;-36
2022/10/06 09:32:40;;;;;;;;;;;;;;;;;;4998441;28;20032;-35
2022/10/06 09:35:06;;;;;;;;;;;;;;;;;;5002474;28;19974;-35
2022/10/06 09:37:31;;;;;;;;;;;;;;;;;;4999606;28;19998;-35
2022/10/06 09:39:56;;;;;;;;;;;;;;;;;;5001712;28;19914;-35
2022/10/06 09:42:21;;;;;;;;;;;;;;;;;;5002320;28;19924;-36
2022/10/06 09:44:49;;;;;;;;;;;;;;;;;;5000938;28;19924;-35
2022/10/06 09:47:14;;;;;;;;;;;;;;;;;;4998450;28;20004;-35
2022/10/06 09:49:40;;;;;;;;;;;;;;;;;;4998803;28;19928;-35
2022/10/06 09:52:05;;;;;;;;;;;;;;;;;;5002342;28;19921;-36
2022/10/06 09:54:30;;;;;;;;;;;;;;;;;;4997730;28;20584;-35
2022/10/06 09:56:57;;;;;;;;;;;;;;;;;;5000972;28;20378;-35
2022/10/06 09:59:22;;;;;;;;;;;;;;;;;;4996123;28;20294;-35
2022/10/06 10:01:47;;;;;;;;;;;;;;;;;;4999386;28;19929;-35
2022/10/06 10:04:13;;;;;;;;;;;;;;;;;;5000708;28;20012;-35
2022/10/06 10:06:39;;;;;;;;;;;;;;;;;;4997581;28;20046;-35
2022/10/06 10:09:04;;;;;;;;;;;;;;;;;;5001848;28;19925;-35
2022/10/06 10:14:14;;;;;;;;;;;;;;;;;;4996773;28;20426;-35
2022/10/06 10:16:39;;;;;;;;;;;;;;;;;;5002133;28;20571;-35
2022/10/06 10:19:04;;;;;;;;;;;;;;;;;;4998548;28;19921;-35
2022/10/06 10:21:29;;;;;;;;;;;;;;;;;;5000844;28;19932;-35
2022/10/06 10:23:54;;;;;;;;;;;;;;;;;;5002530;28;19913;-35
2022/10/06 10:26:20;;;;;;;;;;;;;;;;;;5002537;28;20333;-35
2022/10/06 10:28:46;;;;;;;;;;;;;;;;;;4998512;28;19918;-35
2022/10/06 10:31:12;;;;;;;;;;;;;;;;;;5000856;28;19971;-35
2022/10/06 10:33:38;;;;;;;;;;;;;;;;;;5002075;28;20417;-35
2022/10/06 10:36:03;;;;;;;;;;;;;;;;;;5002029;28;19917;-35
2022/10/06 10:38:28;;;;;;;;;;;;;;;;;;5001143;28;19914;-35
2022/10/06 10:40:54;;;;;;;;;;;;;;;;;;5003589;28;20360;-35
2022/10/06 10:43:21;;;;;;;;;;;;;;;;;;4999569;28;19921;-35
2022/10/06 10:45:46;;;;;;;;;;;;;;;;;;5006402;28;19917;-35
2022/10/06 10:48:11;;;;;;;;;;;;;;;;;;5003653;28;19921;-35
2022/10/06 10:50:36;;;;;;;;;;;;;;;;;;5005641;28;19936;-35
2022/10/06 10:53:01;;;;;;;;;;;;;;;;;;5002542;28;19941;-35
2022/10/06 10:55:26;;;;;;;;;;;;;;;;;;5005108;28;19981;-35
2022/10/06 10:57:51;;;;;;;;;;;;;;;;;;5002581;28;19971;-35
2022/10/06 11:00:17;;;;;;;;;;;;;;;;;;5006024;28;19964;-35
2022/10/06 11:02:42;;;;;;;;;;;;;;;;;;5004400;28;19925;-35
2022/10/06 11:05:09;;;;;;;;;;;;;;;;;;5004355;28;19983;-35
2022/10/06 11:07:34;;;;;;;;;;;;;;;;;;5004303;28;20323;-35
2022/10/06 11:09:59;;;;;;;;;;;;;;;;;;5005176;28;19921;-35
2022/10/06 11:12:25;;;;;;;;;;;;;;;;;;5005649;28;19922;-35
2022/10/06 11:14:50;;;;;;;;;;;;;;;;;;5002608;28;19952;-35
2022/10/06 11:17:15;;;;;;;;;;;;;;;;;;5001884;28;20391;-35
2022/10/06 11:19:40;;;;;;;;;;;;;;;;;;5004928;28;19925;-35
2022/10/06 11:22:05;;;;;;;;;;;;;;;;;;5004255;28;19937;-35
2022/10/06 11:24:31;;;;;;;;;;;;;;;;;;5004752;28;20032;-35
2022/10/06 11:26:56;;;;;;;;;;;;;;;;;;4999038;28;20494;-35
2022/10/06 11:29:21;;;;;;;;;;;;;;;;;;5002050;28;20360;-35
2022/10/06 11:31:46;;;;;;;;;;;;;;;;;;5002853;28;19921;-35
2022/10/06 11:34:11;;;;;;;;;;;;;;;;;;4997953;28;19921;-35
2022/10/06 11:36:36;;;;;;;;;;;;;;;;;;5016589;23;20063;-34
2022/10/06 11:39:02;;;;;;;;;;;;;;;;;;5002485;28;19925;-34
2022/10/06 11:41:27;;;;;;;;;;;;;;;;;;4999784;28;19964;-34
2022/10/06 11:43:52;;;;;;;;;;;;;;;;;;5000855;28;19984;-34
2022/10/06 11:46:17;;;;;;;;;;;;;;;;;;5003541;28;19924;-34
2022/10/06 11:48:42;;;;;;;;;;;;;;;;;;4998800;28;19925;-34
2022/10/06 11:51:07;;;;;;;;;;;;;;;;;;5002327;28;19967;-33
2022/10/06 11:53:36;;;;;;;;;;;;;;;;;;5000567;28;20373;-33
2022/10/06 11:56:01;;;;;;;;;;;;;;;;;;5003101;28;20206;-33
2022/10/06 11:58:26;;;;;;;;;;;;;;;;;;5005617;28;20653;-34
2022/10/06 12:00:51;;;;;;;;;;;;;;;;;;5003406;28;19933;-34
2022/10/06 12:03:16;;;;;;;;;;;;;;;;;;5002516;28;19928;-33
2022/10/06 12:05:41;;;;;;;;;;;;;;;;;;5002058;28;20097;-34
2022/10/06 12:08:07;;;;;;;;;;;;;;;;;;4999047;28;19921;-33
2022/10/06 12:10:32;;;;;;;;;;;;;;;;;;5002196;28;20294;-33
2022/10/06 12:12:57;;;;;;;;;;;;;;;;;;5000643;28;19922;-34
2022/10/06 12:15:22;;;;;;;;;;;;;;;;;;5001883;28;20379;-34
2022/10/06 12:17:48;;;;;;;;;;;;;;;;;;4998202;28;19932;-34
2022/10/06 12:20:13;;;;;;;;;;;;;;;;;;5002163;28;19917;-33
2022/10/06 12:22:38;;;;;;;;;;;;;;;;;;5003334;28;20375;-34
2022/10/06 12:25:04;;;;;;;;;;;;;;;;;;4995608;28;19975;-34
2022/10/06 12:27:29;;;;;;;;;;;;;;;;;;4997601;28;19967;-34
2022/10/06 12:29:54;;;;;;;;;;;;;;;;;;4999438;28;19917;-33
2022/10/06 12:32:20;;;;;;;;;;;;;;;;;;4995760;28;19987;-34
2022/10/06 12:34:45;;;;;;;;;;;;;;;;;;4998514;28;19980;-34
2022/10/06 12:37:10;;;;;;;;;;;;;;;;;;4996922;28;20879;-34
2022/10/06 12:39:35;;;;;;;;;;;;;;;;;;4996027;28;19918;-33
2022/10/06 12:42:00;;;;;;;;;;;;;;;;;;4994435;28;20965;-34
2022/10/06 12:44:26;;;;;;;;;;;;;;;;;;4999827;28;20179;-34
2022/10/06 12:46:51;;;;;;;;;;;;;;;;;;5002174;28;19961;-33
2022/10/06 12:49:17;;;;;;;;;;;;;;;;;;5000692;28;19917;-34
2022/10/06 12:51:42;;;;;;;;;;;;;;;;;;4995596;28;19918;-34
2022/10/06 12:54:08;;;;;;;;;;;;;;;;;;5002806;28;20528;-34
2022/10/06 12:56:34;;;;;;;;;;;;;;;;;;5001981;28;19918;-34
2022/10/06 12:58:59;;;;;;;;;;;;;;;;;;4999569;28;19928;-34
2022/10/06 13:01:25;;;;;;;;;;;;;;;;;;4999891;28;19917;-34
2022/10/06 13:03:50;;;;;;;;;;;;;;;;;;4997719;28;19932;-34
2022/10/06 13:06:15;;;;;;;;;;;;;;;;;;4996507;28;19979;-35
2022/10/06 13:08:40;;;;;;;;;;;;;;;;;;4994747;28;20053;-36
2022/10/06 13:11:05;;;;;;;;;;;;;;;;;;4994662;28;21310;-35
2022/10/06 13:13:31;;;;;;;;;;;;;;;;;;5002977;28;19921;-35
2022/10/06 13:15:59;;;;;;;;;;;;;;;;;;5000451;28;19917;-35
2022/10/06 13:18:25;;;;;;;;;;;;;;;;;;4998082;28;19918;-35
2022/10/06 13:20:50;;;;;;;;;;;;;;;;;;4997479;28;19921;-36
2022/10/06 13:23:15;;;;;;;;;;;;;;;;;;5001661;28;19917;-36
2022/10/06 13:25:40;;;;;;;;;;;;;;;;;;5000560;28;19964;-36
2022/10/06 13:28:05;;;;;;;;;;;;;;;;;;4995524;28;19928;-35
2022/10/06 13:30:31;;;;;;;;;;;;;;;;;;4997127;28;19924;-35
2022/10/06 13:32:56;;;;;;;;;;;;;;;;;;4996804;28;19921;-35
2022/10/06 13:35:21;;;;;;;;;;;;;;;;;;4997133;28;20307;-36
2022/10/06 13:37:46;;;;;;;;;;;;;;;;;;4997285;28;19921;-36
2022/10/06 13:40:11;;;;;;;;;;;;;;;;;;4999082;28;20453;-35
2022/10/06 13:42:36;;;;;;;;;;;;;;;;;;4993877;28;19914;-36
2022/10/06 13:45:02;;;;;;;;;;;;;;;;;;5000387;28;20069;-36
2022/10/06 13:47:31;;;;;;;;;;;;;;;;;;5000791;28;19955;-36
2022/10/06 13:49:57;;;;;;;;;;;;;;;;;;4996829;28;19964;-36
2022/10/06 13:52:22;;;;;;;;;;;;;;;;;;4998291;28;19922;-36
2022/10/06 13:54:47;;;;;;;;;;;;;;;;;;4999044;28;20283;-35
2022/10/06 13:57:12;;;;;;;;;;;;;;;;;;4996077;28;19917;-35
2022/10/06 13:59:37;;;;;;;;;;;;;;;;;;4999699;28;20274;-35
2022/10/06 14:02:03;;;;;;;;;;;;;;;;;;4998090;28;19984;-35
2022/10/06 14:04:28;;;;;;;;;;;;;;;;;;4997585;28;19976;-36
2022/10/06 14:06:53;;;;;;;;;;;;;;;;;;4997454;28;20035;-36
2022/10/06 14:09:18;;;;;;;;;;;;;;;;;;4999367;28;20300;-36
2022/10/06 14:11:43;;;;;;;;;;;;;;;;;;5004822;28;20015;-35
2022/10/06 14:14:09;;;;;;;;;;;;;;;;;;5000705;28;19964;-36
2022/10/06 14:16:34;;;;;;;;;;;;;;;;;;5001794;28;19921;-35
2022/10/06 14:18:59;;;;;;;;;;;;;;;;;;5001684;28;19921;-35
2022/10/06 14:21:24;;;;;;;;;;;;;;;;;;5001905;28;19917;-36
2022/10/06 14:23:49;;;;;;;;;;;;;;;;;;5001702;28;19921;-35
2022/10/06 14:26:14;;;;;;;;;;;;;;;;;;5001924;28;19918;-35
2022/10/06 14:28:39;;;;;;;;;;;;;;;;;;4999201;28;19957;-35
2022/10/06 14:31:05;;;;;;;;;;;;;;;;;;5003071;28;20297;-35
2022/10/06 14:33:30;;;;;;;;;;;;;;;;;;4995940;28;19968;-35
2022/10/06 14:35:55;;;;;;;;;;;;;;;;;;5005099;28;19957;-35
2022/10/06 14:38:20;;;;;;;;;;;;;;;;;;5000230;28;20295;-36
2022/10/06 14:40:45;;;;;;;;;;;;;;;;;;5001920;28;19917;-35
2022/10/06 14:43:10;;;;;;;;;;;;;;;;;;5003368;28;20011;-36
2022/10/06 14:45:36;;;;;;;;;;;;;;;;;;5001066;28;19916;-36
2022/10/06 14:48:03;;;;;;;;;;;;;;;;;;4996919;28;20462;-35
2022/10/06 14:50:29;;;;;;;;;;;;;;;;;;4998009;28;20260;-36
2022/10/06 14:52:56;;;;;;;;;;;;;;;;;;5001187;28;19921;-35
2022/10/06 14:55:21;;;;;;;;;;;;;;;;;;5000251;28;19914;-35
2022/10/06 14:57:46;;;;;;;;;;;;;;;;;;5003137;28;20104;-35
2022/10/06 15:00:12;;;;;;;;;;;;;;;;;;5006050;28;19917;-36
2022/10/06 15:02:37;;;;;;;;;;;;;;;;;;5004916;28;20383;-35
2022/10/06 15:05:02;;;;;;;;;;;;;;;;;;5003767;28;19913;-35
2022/10/06 15:10:11;;;;;;;;;;;;;;;;;;5003339;28;19940;-35
2022/10/06 15:12:37;;;;;;;;;;;;;;;;;;5003430;28;19917;-35
2022/10/06 15:15:03;;;;;;;;;;;;;;;;;;5004670;28;19917;-35
2022/10/06 15:17:28;;;;;;;;;;;;;;;;;;5004300;28;19920;-36
2022/10/06 15:19:54;;;;;;;;;;;;;;;;;;5004428;28;20278;-36
2022/10/06 15:22:19;;;;;;;;;;;;;;;;;;5001023;28;19921;-35
2022/10/06 15:24:49;;;;;;;;;;;;;;;;;;5001636;28;19999;-35
2022/10/06 15:29:58;;;;;;;;;;;;;;;;;;5002435;28;20013;-35
2022/10/06 15:32:23;;;;;;;;;;;;;;;;;;5006405;28;20891;-35
2022/10/06 15:34:48;;;;;;;;;;;;;;;;;;5002251;28;19925;-35
2022/10/06 15:37:13;;;;;;;;;;;;;;;;;;5007802;28;19921;-35
2022/10/06 15:39:39;;;;;;;;;;;;;;;;;;5000331;28;20388;-35
2022/10/06 15:42:04;;;;;;;;;;;;;;;;;;4998969;28;20071;-35
2022/10/06 15:44:29;;;;;;;;;;;;;;;;;;5002772;28;19917;-35
2022/10/06 15:46:54;;;;;;;;;;;;;;;;;;5002701;28;19943;-35
2022/10/06 15:49:19;;;;;;;;;;;;;;;;;;5003743;28;19925;-35
2022/10/06 15:51:48;;;;;;;;;;;;;;;;;;5003859;28;19967;-35
2022/10/06 15:54:13;;;;;;;;;;;;;;;;;;4998593;28;20023;-35
2022/10/06 15:56:38;;;;;;;;;;;;;;;;;;4999033;28;20019;-35
2022/10/06 15:59:03;;;;;;;;;;;;;;;;;;5000839;28;20305;-35
2022/10/06 16:01:28;;;;;;;;;;;;;;;;;;5002755;28;19924;-36
2022/10/06 16:03:54;;;;;;;;;;;;;;;;;;5003555;28;19918;-35
2022/10/06 16:06:39;;;;;;;;;;;;;;;;;;5000320;28;19928;-36
2022/10/06 16:09:04;;;;;;;;;;;;;;;;;;5001037;28;19929;-35
2022/10/06 16:11:29;;;;;;;;;;;;;;;;;;5001157;28;19925;-35
2022/10/06 16:13:54;;;;;;;;;;;;;;;;;;5004224;28;19917;-36
2022/10/06 16:16:19;;;;;;;;;;;;;;;;;;5001844;28;19930;-35
2022/10/06 16:18:45;;;;;;;;;;;;;;;;;;5004303;28;19917;-35
2022/10/06 16:21:10;;;;;;;;;;;;;;;;;;5001595;28;19940;-35
2022/10/06 16:23:35;;;;;;;;;;;;;;;;;;4998403;28;19968;-35
2022/10/06 16:26:00;;;;;;;;;;;;;;;;;;4995920;28;19926;-35
2022/10/06 16:28:25;;;;;;;;;;;;;;;;;;4996395;28;19921;-35
2022/10/06 16:30:50;;;;;;;;;;;;;;;;;;4994305;28;19917;-35
2022/10/06 16:33:15;;;;;;;;;;;;;;;;;;4999848;28;19928;-36
2022/10/06 16:35:41;;;;;;;;;;;;;;;;;;5002644;28;20353;-35
2022/10/06 16:38:06;;;;;;;;;;;;;;;;;;5001168;28;19936;-35
2022/10/06 16:40:31;;;;;;;;;;;;;;;;;;5001878;28;20388;-35
2022/10/06 16:42:56;;;;;;;;;;;;;;;;;;5003785;28;19918;-35
2022/10/06 16:45:21;;;;;;;;;;;;;;;;;;5002157;28;19940;-35
2022/10/06 16:47:46;;;;;;;;;;;;;;;;;;4995472;28;20678;-35
2022/10/06 16:50:12;;;;;;;;;;;;;;;;;;5001889;28;20001;-35
2022/10/06 16:52:37;;;;;;;;;;;;;;;;;;4999521;28;19917;-36
2022/10/06 16:55:02;;;;;;;;;;;;;;;;;;4999632;28;20106;-35